sensor_id;sensor_type;location;lat;lon;timestamp;temperature;humidity
52943;DHT22;38809;53.300;6.614;2022-12-29T00:01:29;10.00;99.90
52943;DHT22;38809;53.300;6.614;2022-12-29T00:03:55;9.90;99.90
52943;DHT22;38809;53.300;6.614;2022-12-29T00:06:21;9.90;99.90
52943;DHT22;38809;53.300;6.614;2022-12-29T00:08:47;9.90;99.90
52943;DHT22;38809;53.300;6.614;2022-12-29T00:11:21;9.90;99.90
52943;DHT22;38809;53.300;6.614;2022-12-29T00:13:47;9.90;99.90
52943;DHT22;38809;53.300;6.614;2022-12-29T00:16:32;9.90;99.90
52943;DHT22;38809;53.300;6.614;2022-12-29T00:18:58;9.90;99.90
52943;DHT22;38809;53.300;6.614;2022-12-29T00:21:25;9.90;99.90
52943;DHT22;38809;53.300;6.614;2022-12-29T00:24:13;9.90;99.90
52943;DHT22;38809;53.300;6.614;2022-12-29T00:27:09;9.90;99.90
52943;DHT22;38809;53.300;6.614;2022-12-29T00:29:53;9.90;99.90
52943;DHT22;38809;53.300;6.614;2022-12-29T00:32:38;10.00;99.90
52943;DHT22;38809;53.300;6.614;2022-12-29T00:37:53;10.00;99.90
52943;DHT22;38809;53.300;6.614;2022-12-29T00:40:39;10.00;99.90
52943;DHT22;38809;53.300;6.614;2022-12-29T00:43:23;10.10;99.90
52943;DHT22;38809;53.300;6.614;2022-12-29T00:46:08;10.10;99.90
52943;DHT22;38809;53.300;6.614;2022-12-29T00:48:33;10.20;99.90
52943;DHT22;38809;53.300;6.614;2022-12-29T00:51:18;10.20;99.90
52943;DHT22;38809;53.300;6.614;2022-12-29T00:53:43;10.20;99.90
52943;DHT22;38809;53.300;6.614;2022-12-29T00:56:09;10.20;99.90
52943;DHT22;38809;53.300;6.614;2022-12-29T00:58:35;10.20;99.90
52943;DHT22;38809;53.300;6.614;2022-12-29T01:01:02;10.20;99.90
52943;DHT22;38809;53.300;6.614;2022-12-29T01:03:27;10.20;99.90
52943;DHT22;38809;53.300;6.614;2022-12-29T01:05:53;10.30;99.90
52943;DHT22;38809;53.300;6.614;2022-12-29T01:08:19;10.30;99.90
52943;DHT22;38809;53.300;6.614;2022-12-29T01:10:45;10.30;99.90
52943;DHT22;38809;53.300;6.614;2022-12-29T01:13:10;10.30;99.90
52943;DHT22;38809;53.300;6.614;2022-12-29T01:15:36;10.30;99.90
52943;DHT22;38809;53.300;6.614;2022-12-29T01:18:02;10.30;99.90
52943;DHT22;38809;53.300;6.614;2022-12-29T01:20:27;10.40;99.90
52943;DHT22;38809;53.300;6.614;2022-12-29T01:22:54;10.40;99.90
52943;DHT22;38809;53.300;6.614;2022-12-29T01:25:20;10.40;99.90
52943;DHT22;38809;53.300;6.614;2022-12-29T01:27:46;10.40;99.90
52943;DHT22;38809;53.300;6.614;2022-12-29T01:30:12;10.40;99.90
52943;DHT22;38809;53.300;6.614;2022-12-29T01:32:38;10.30;99.90
52943;DHT22;38809;53.300;6.614;2022-12-29T01:35:04;10.30;99.90
52943;DHT22;38809;53.300;6.614;2022-12-29T01:37:30;10.40;99.90
52943;DHT22;38809;53.300;6.614;2022-12-29T01:39:55;10.30;99.90
52943;DHT22;38809;53.300;6.614;2022-12-29T01:42:24;10.30;99.90
52943;DHT22;38809;53.300;6.614;2022-12-29T01:44:54;10.30;99.90
52943;DHT22;38809;53.300;6.614;2022-12-29T01:47:30;10.30;99.90
52943;DHT22;38809;53.300;6.614;2022-12-29T01:50:24;10.30;99.90
52943;DHT22;38809;53.300;6.614;2022-12-29T01:53:11;10.30;99.90
52943;DHT22;38809;53.300;6.614;2022-12-29T01:55:42;10.20;99.90
52943;DHT22;38809;53.300;6.614;2022-12-29T01:58:11;10.30;99.90
52943;DHT22;38809;53.300;6.614;2022-12-29T02:00:37;10.20;99.90
52943;DHT22;38809;53.300;6.614;2022-12-29T02:03:04;10.20;99.90
52943;DHT22;38809;53.300;6.614;2022-12-29T02:08:08;10.10;99.90
52943;DHT22;38809;53.300;6.614;2022-12-29T02:10:36;10.10;99.90
52943;DHT22;38809;53.300;6.614;2022-12-29T02:13:02;10.10;99.90
52943;DHT22;38809;53.300;6.614;2022-12-29T02:15:36;10.10;99.90
52943;DHT22;38809;53.300;6.614;2022-12-29T02:18:29;10.00;99.90
52943;DHT22;38809;53.300;6.614;2022-12-29T02:21:19;10.00;99.90
52943;DHT22;38809;53.300;6.614;2022-12-29T02:32:36;9.90;99.90
52943;DHT22;38809;53.300;6.614;2022-12-29T02:38:14;9.90;99.90
52943;DHT22;38809;53.300;6.614;2022-12-29T02:40:54;9.90;99.90
52943;DHT22;38809;53.300;6.614;2022-12-29T02:43:27;9.90;99.90
52943;DHT22;38809;53.300;6.614;2022-12-29T02:54:13;10.10;99.90
52943;DHT22;38809;53.300;6.614;2022-12-29T02:57:00;10.00;99.90
52943;DHT22;38809;53.300;6.614;2022-12-29T02:59:26;10.10;99.90
52943;DHT22;38809;53.300;6.614;2022-12-29T03:16:05;10.10;99.90
52943;DHT22;38809;53.300;6.614;2022-12-29T03:21:39;10.20;99.90
52943;DHT22;38809;53.300;6.614;2022-12-29T03:24:28;10.20;99.90
52943;DHT22;38809;53.300;6.614;2022-12-29T03:26:57;10.20;99.90
52943;DHT22;38809;53.300;6.614;2022-12-29T03:29:24;10.30;99.90
52943;DHT22;38809;53.300;6.614;2022-12-29T03:31:52;10.20;99.90
52943;DHT22;38809;53.300;6.614;2022-12-29T03:34:21;10.20;99.90
52943;DHT22;38809;53.300;6.614;2022-12-29T03:36:52;10.20;99.90
52943;DHT22;38809;53.300;6.614;2022-12-29T03:39:21;10.20;99.90
52943;DHT22;38809;53.300;6.614;2022-12-29T03:41:50;10.20;99.90
52943;DHT22;38809;53.300;6.614;2022-12-29T03:44:19;10.30;99.90
52943;DHT22;38809;53.300;6.614;2022-12-29T03:46:45;10.20;99.90
52943;DHT22;38809;53.300;6.614;2022-12-29T03:49:10;10.20;99.90
52943;DHT22;38809;53.300;6.614;2022-12-29T03:51:36;10.20;99.90
52943;DHT22;38809;53.300;6.614;2022-12-29T03:54:02;10.10;99.90
52943;DHT22;38809;53.300;6.614;2022-12-29T03:56:28;10.10;99.90
52943;DHT22;38809;53.300;6.614;2022-12-29T03:58:53;10.10;99.90
52943;DHT22;38809;53.300;6.614;2022-12-29T04:01:19;10.10;99.90
52943;DHT22;38809;53.300;6.614;2022-12-29T04:03:45;10.00;99.90
52943;DHT22;38809;53.300;6.614;2022-12-29T04:06:11;10.00;99.90
52943;DHT22;38809;53.300;6.614;2022-12-29T04:08:36;10.00;99.90
52943;DHT22;38809;53.300;6.614;2022-12-29T04:11:02;10.00;99.90
52943;DHT22;38809;53.300;6.614;2022-12-29T04:13:28;9.90;99.90
52943;DHT22;38809;53.300;6.614;2022-12-29T04:15:53;9.90;99.90
52943;DHT22;38809;53.300;6.614;2022-12-29T04:18:19;9.90;99.90
52943;DHT22;38809;53.300;6.614;2022-12-29T04:20:45;9.90;99.90
52943;DHT22;38809;53.300;6.614;2022-12-29T04:23:26;10.00;99.90
52943;DHT22;38809;53.300;6.614;2022-12-29T04:25:52;10.00;99.90
52943;DHT22;38809;53.300;6.614;2022-12-29T04:28:18;10.00;99.90
52943;DHT22;38809;53.300;6.614;2022-12-29T04:30:44;9.90;99.90
52943;DHT22;38809;53.300;6.614;2022-12-29T04:33:11;10.00;99.90
52943;DHT22;38809;53.300;6.614;2022-12-29T04:35:37;10.00;99.90
52943;DHT22;38809;53.300;6.614;2022-12-29T04:38:03;10.00;99.90
52943;DHT22;38809;53.300;6.614;2022-12-29T04:40:29;10.00;99.90
52943;DHT22;38809;53.300;6.614;2022-12-29T04:42:54;10.00;99.90
52943;DHT22;38809;53.300;6.614;2022-12-29T04:45:20;10.10;99.90
52943;DHT22;38809;53.300;6.614;2022-12-29T04:47:46;10.00;99.90
52943;DHT22;38809;53.300;6.614;2022-12-29T04:50:11;10.00;99.90
52943;DHT22;38809;53.300;6.614;2022-12-29T04:52:37;10.10;99.90
52943;DHT22;38809;53.300;6.614;2022-12-29T04:55:04;10.00;99.90
52943;DHT22;38809;53.300;6.614;2022-12-29T04:57:30;9.90;99.90
52943;DHT22;38809;53.300;6.614;2022-12-29T04:59:56;10.00;99.90
52943;DHT22;38809;53.300;6.614;2022-12-29T05:02:22;9.90;99.90
52943;DHT22;38809;53.300;6.614;2022-12-29T05:04:48;9.80;99.90
52943;DHT22;38809;53.300;6.614;2022-12-29T05:07:14;9.80;99.90
52943;DHT22;38809;53.300;6.614;2022-12-29T05:09:39;9.70;99.90
52943;DHT22;38809;53.300;6.614;2022-12-29T05:12:05;9.90;99.90
52943;DHT22;38809;53.300;6.614;2022-12-29T05:14:31;9.70;99.90
52943;DHT22;38809;53.300;6.614;2022-12-29T05:16:57;9.70;99.90
52943;DHT22;38809;53.300;6.614;2022-12-29T05:19:23;9.70;99.90
52943;DHT22;38809;53.300;6.614;2022-12-29T05:21:49;9.70;99.90
52943;DHT22;38809;53.300;6.614;2022-12-29T05:24:14;9.60;99.90
52943;DHT22;38809;53.300;6.614;2022-12-29T05:26:41;9.60;99.90
52943;DHT22;38809;53.300;6.614;2022-12-29T05:29:07;9.60;99.90
52943;DHT22;38809;53.300;6.614;2022-12-29T05:31:32;9.50;99.90
52943;DHT22;38809;53.300;6.614;2022-12-29T05:34:01;9.60;99.90
52943;DHT22;38809;53.300;6.614;2022-12-29T05:36:27;9.50;99.90
52943;DHT22;38809;53.300;6.614;2022-12-29T05:38:53;9.50;99.90
52943;DHT22;38809;53.300;6.614;2022-12-29T05:41:18;9.40;99.90
52943;DHT22;38809;53.300;6.614;2022-12-29T05:43:44;9.40;99.90
52943;DHT22;38809;53.300;6.614;2022-12-29T05:46:10;9.40;99.90
52943;DHT22;38809;53.300;6.614;2022-12-29T05:48:36;9.40;99.90
52943;DHT22;38809;53.300;6.614;2022-12-29T05:51:01;9.30;99.90
52943;DHT22;38809;53.300;6.614;2022-12-29T05:53:27;9.40;99.90
52943;DHT22;38809;53.300;6.614;2022-12-29T05:55:53;9.40;99.90
52943;DHT22;38809;53.300;6.614;2022-12-29T05:58:19;9.40;99.90
52943;DHT22;38809;53.300;6.614;2022-12-29T06:00:45;9.40;99.90
52943;DHT22;38809;53.300;6.614;2022-12-29T06:03:11;9.40;99.90
52943;DHT22;38809;53.300;6.614;2022-12-29T06:05:37;9.40;99.90
52943;DHT22;38809;53.300;6.614;2022-12-29T06:08:02;9.50;99.90
52943;DHT22;38809;53.300;6.614;2022-12-29T06:10:28;9.50;99.90
52943;DHT22;38809;53.300;6.614;2022-12-29T06:12:54;9.50;99.90
52943;DHT22;38809;53.300;6.614;2022-12-29T06:15:20;9.40;99.90
52943;DHT22;38809;53.300;6.614;2022-12-29T06:17:45;9.50;99.90
52943;DHT22;38809;53.300;6.614;2022-12-29T06:20:11;9.50;99.90
52943;DHT22;38809;53.300;6.614;2022-12-29T06:22:37;9.50;99.90
52943;DHT22;38809;53.300;6.614;2022-12-29T06:25:03;9.50;99.90
52943;DHT22;38809;53.300;6.614;2022-12-29T06:27:31;9.50;99.90
52943;DHT22;38809;53.300;6.614;2022-12-29T06:29:56;9.50;99.90
52943;DHT22;38809;53.300;6.614;2022-12-29T06:32:22;9.50;99.90
52943;DHT22;38809;53.300;6.614;2022-12-29T06:34:48;9.50;99.90
52943;DHT22;38809;53.300;6.614;2022-12-29T06:37:13;9.40;99.90
52943;DHT22;38809;53.300;6.614;2022-12-29T06:39:40;9.40;99.90
52943;DHT22;38809;53.300;6.614;2022-12-29T06:42:06;9.40;99.90
52943;DHT22;38809;53.300;6.614;2022-12-29T06:44:31;9.30;99.90
52943;DHT22;38809;53.300;6.614;2022-12-29T06:46:57;9.30;99.90
52943;DHT22;38809;53.300;6.614;2022-12-29T06:49:23;9.40;99.90
52943;DHT22;38809;53.300;6.614;2022-12-29T06:51:49;9.40;99.90
52943;DHT22;38809;53.300;6.614;2022-12-29T06:54:14;9.40;99.90
52943;DHT22;38809;53.300;6.614;2022-12-29T06:56:40;9.30;99.90
52943;DHT22;38809;53.300;6.614;2022-12-29T06:59:06;9.20;99.90
52943;DHT22;38809;53.300;6.614;2022-12-29T07:01:32;9.20;99.90
52943;DHT22;38809;53.300;6.614;2022-12-29T07:03:57;9.30;99.90
52943;DHT22;38809;53.300;6.614;2022-12-29T07:06:23;9.30;99.90
52943;DHT22;38809;53.300;6.614;2022-12-29T07:08:49;9.30;99.90
52943;DHT22;38809;53.300;6.614;2022-12-29T07:11:14;9.20;99.90
52943;DHT22;38809;53.300;6.614;2022-12-29T07:13:40;9.20;99.90
52943;DHT22;38809;53.300;6.614;2022-12-29T07:16:09;9.30;99.90
52943;DHT22;38809;53.300;6.614;2022-12-29T07:18:36;9.30;99.90
52943;DHT22;38809;53.300;6.614;2022-12-29T07:21:02;9.30;99.90
52943;DHT22;38809;53.300;6.614;2022-12-29T07:23:28;9.20;99.90
52943;DHT22;38809;53.300;6.614;2022-12-29T07:26:07;9.20;99.90
52943;DHT22;38809;53.300;6.614;2022-12-29T07:28:35;9.20;99.90
52943;DHT22;38809;53.300;6.614;2022-12-29T07:31:01;9.20;99.90
52943;DHT22;38809;53.300;6.614;2022-12-29T07:33:30;9.30;99.90
52943;DHT22;38809;53.300;6.614;2022-12-29T07:35:57;9.30;99.90
52943;DHT22;38809;53.300;6.614;2022-12-29T07:38:22;9.30;99.90
52943;DHT22;38809;53.300;6.614;2022-12-29T07:40:48;9.40;99.90
52943;DHT22;38809;53.300;6.614;2022-12-29T07:43:14;9.40;99.90
52943;DHT22;38809;53.300;6.614;2022-12-29T07:45:40;9.40;99.90
52943;DHT22;38809;53.300;6.614;2022-12-29T07:48:05;9.40;99.90
52943;DHT22;38809;53.300;6.614;2022-12-29T07:50:34;9.50;99.90
52943;DHT22;38809;53.300;6.614;2022-12-29T07:52:59;9.50;99.90
52943;DHT22;38809;53.300;6.614;2022-12-29T07:55:25;9.50;99.90
52943;DHT22;38809;53.300;6.614;2022-12-29T07:57:53;9.50;99.90
52943;DHT22;38809;53.300;6.614;2022-12-29T08:00:19;9.50;99.90
52943;DHT22;38809;53.300;6.614;2022-12-29T08:02:45;9.50;99.90
52943;DHT22;38809;53.300;6.614;2022-12-29T08:05:11;9.60;99.90
52943;DHT22;38809;53.300;6.614;2022-12-29T08:07:37;9.50;99.90
52943;DHT22;38809;53.300;6.614;2022-12-29T08:10:03;9.50;99.90
52943;DHT22;38809;53.300;6.614;2022-12-29T08:12:29;9.50;99.90
52943;DHT22;38809;53.300;6.614;2022-12-29T08:14:54;9.60;99.90
52943;DHT22;38809;53.300;6.614;2022-12-29T08:17:20;9.50;99.90
52943;DHT22;38809;53.300;6.614;2022-12-29T08:19:46;9.50;99.90
52943;DHT22;38809;53.300;6.614;2022-12-29T08:22:13;9.50;99.90
52943;DHT22;38809;53.300;6.614;2022-12-29T08:24:39;9.40;99.90
52943;DHT22;38809;53.300;6.614;2022-12-29T08:27:05;9.40;99.90
52943;DHT22;38809;53.300;6.614;2022-12-29T08:29:31;9.40;99.90
52943;DHT22;38809;53.300;6.614;2022-12-29T08:31:56;9.40;99.90
52943;DHT22;38809;53.300;6.614;2022-12-29T08:34:22;9.50;99.90
52943;DHT22;38809;53.300;6.614;2022-12-29T08:36:49;9.40;99.90
52943;DHT22;38809;53.300;6.614;2022-12-29T08:39:15;9.60;99.90
52943;DHT22;38809;53.300;6.614;2022-12-29T08:41:41;9.50;99.90
52943;DHT22;38809;53.300;6.614;2022-12-29T08:44:07;9.60;99.90
52943;DHT22;38809;53.300;6.614;2022-12-29T08:46:33;9.50;99.90
52943;DHT22;38809;53.300;6.614;2022-12-29T08:48:58;9.50;99.90
52943;DHT22;38809;53.300;6.614;2022-12-29T08:51:24;9.40;99.90
52943;DHT22;38809;53.300;6.614;2022-12-29T08:53:50;9.30;99.90
52943;DHT22;38809;53.300;6.614;2022-12-29T08:56:16;9.30;99.90
52943;DHT22;38809;53.300;6.614;2022-12-29T08:58:41;9.30;99.90
52943;DHT22;38809;53.300;6.614;2022-12-29T09:01:08;9.30;99.90
52943;DHT22;38809;53.300;6.614;2022-12-29T09:03:34;9.30;99.90
52943;DHT22;38809;53.300;6.614;2022-12-29T09:06:00;9.20;99.90
52943;DHT22;38809;53.300;6.614;2022-12-29T09:08:26;9.20;99.90
52943;DHT22;38809;53.300;6.614;2022-12-29T09:10:52;9.30;99.90
52943;DHT22;38809;53.300;6.614;2022-12-29T09:13:17;9.30;99.90
52943;DHT22;38809;53.300;6.614;2022-12-29T09:15:43;9.30;99.90
52943;DHT22;38809;53.300;6.614;2022-12-29T09:18:10;9.30;99.90
52943;DHT22;38809;53.300;6.614;2022-12-29T09:20:36;9.30;99.90
52943;DHT22;38809;53.300;6.614;2022-12-29T09:23:03;9.30;99.90
52943;DHT22;38809;53.300;6.614;2022-12-29T09:25:28;9.30;99.90
52943;DHT22;38809;53.300;6.614;2022-12-29T09:27:55;9.20;99.90
52943;DHT22;38809;53.300;6.614;2022-12-29T09:30:22;9.20;99.90
52943;DHT22;38809;53.300;6.614;2022-12-29T09:32:49;9.20;99.90
52943;DHT22;38809;53.300;6.614;2022-12-29T09:35:15;9.20;99.90
52943;DHT22;38809;53.300;6.614;2022-12-29T09:37:42;9.20;99.90
52943;DHT22;38809;53.300;6.614;2022-12-29T09:40:24;9.20;99.90
52943;DHT22;38809;53.300;6.614;2022-12-29T09:45:47;9.30;99.90
52943;DHT22;38809;53.300;6.614;2022-12-29T09:48:23;9.30;99.90
52943;DHT22;38809;53.300;6.614;2022-12-29T09:50:55;9.20;99.90
52943;DHT22;38809;53.300;6.614;2022-12-29T09:53:29;9.20;99.90
52943;DHT22;38809;53.300;6.614;2022-12-29T09:55:59;9.20;99.90
52943;DHT22;38809;53.300;6.614;2022-12-29T09:58:58;9.10;99.90
52943;DHT22;38809;53.300;6.614;2022-12-29T10:03:56;9.10;99.90
52943;DHT22;38809;53.300;6.614;2022-12-29T10:09:13;9.20;99.90
52943;DHT22;38809;53.300;6.614;2022-12-29T10:14:41;9.20;99.90
52943;DHT22;38809;53.300;6.614;2022-12-29T10:17:34;9.20;99.90
52943;DHT22;38809;53.300;6.614;2022-12-29T10:25:20;9.10;99.90
52943;DHT22;38809;53.300;6.614;2022-12-29T10:27:49;9.10;99.90
52943;DHT22;38809;53.300;6.614;2022-12-29T10:30:15;9.10;99.90
52943;DHT22;38809;53.300;6.614;2022-12-29T10:32:44;9.10;99.90
52943;DHT22;38809;53.300;6.614;2022-12-29T10:35:16;9.00;99.90
52943;DHT22;38809;53.300;6.614;2022-12-29T10:40:37;9.00;99.90
52943;DHT22;38809;53.300;6.614;2022-12-29T10:43:26;9.00;99.90
52943;DHT22;38809;53.300;6.614;2022-12-29T10:45:54;9.10;99.90
52943;DHT22;38809;53.300;6.614;2022-12-29T10:48:28;9.10;99.90
52943;DHT22;38809;53.300;6.614;2022-12-29T10:50:58;9.10;99.90
52943;DHT22;38809;53.300;6.614;2022-12-29T10:56:21;9.00;99.90
52943;DHT22;38809;53.300;6.614;2022-12-29T10:58:49;9.10;99.90
52943;DHT22;38809;53.300;6.614;2022-12-29T11:01:16;9.10;99.90
52943;DHT22;38809;53.300;6.614;2022-12-29T11:06:47;9.20;99.90
52943;DHT22;38809;53.300;6.614;2022-12-29T11:09:15;9.20;99.90
52943;DHT22;38809;53.300;6.614;2022-12-29T11:11:41;9.20;99.90
52943;DHT22;38809;53.300;6.614;2022-12-29T11:14:13;9.20;99.90
52943;DHT22;38809;53.300;6.614;2022-12-29T11:16:40;9.20;99.90
52943;DHT22;38809;53.300;6.614;2022-12-29T11:19:23;9.20;99.90
52943;DHT22;38809;53.300;6.614;2022-12-29T11:21:49;9.20;99.90
52943;DHT22;38809;53.300;6.614;2022-12-29T11:24:26;9.20;99.90
52943;DHT22;38809;53.300;6.614;2022-12-29T11:27:13;9.30;99.90
52943;DHT22;38809;53.300;6.614;2022-12-29T11:29:41;9.40;99.90
52943;DHT22;38809;53.300;6.614;2022-12-29T11:32:27;9.30;99.90
52943;DHT22;38809;53.300;6.614;2022-12-29T11:34:56;9.30;99.90
52943;DHT22;38809;53.300;6.614;2022-12-29T11:37:28;9.40;99.90
52943;DHT22;38809;53.300;6.614;2022-12-29T11:39:59;9.40;99.90
52943;DHT22;38809;53.300;6.614;2022-12-29T11:42:42;9.40;99.90
52943;DHT22;38809;53.300;6.614;2022-12-29T11:45:17;9.40;99.90
52943;DHT22;38809;53.300;6.614;2022-12-29T11:47:46;9.40;99.90
52943;DHT22;38809;53.300;6.614;2022-12-29T11:50:22;9.30;99.90
52943;DHT22;38809;53.300;6.614;2022-12-29T11:52:51;9.40;99.90
52943;DHT22;38809;53.300;6.614;2022-12-29T11:55:24;9.40;99.90
52943;DHT22;38809;53.300;6.614;2022-12-29T11:57:53;9.40;99.90
52943;DHT22;38809;53.300;6.614;2022-12-29T12:00:24;9.50;99.90
52943;DHT22;38809;53.300;6.614;2022-12-29T12:03:04;8.30;99.90
52943;DHT22;38809;53.300;6.614;2022-12-29T12:05:50;9.40;99.90
52943;DHT22;38809;53.300;6.614;2022-12-29T12:16:57;9.20;99.90
52943;DHT22;38809;53.300;6.614;2022-12-29T12:27:58;9.10;99.90
52943;DHT22;38809;53.300;6.614;2022-12-29T12:30:26;9.20;99.90
52943;DHT22;38809;53.300;6.614;2022-12-29T12:33:33;9.20;99.90
52943;DHT22;38809;53.300;6.614;2022-12-29T12:46:45;9.40;99.90
52943;DHT22;38809;53.300;6.614;2022-12-29T12:52:07;9.40;99.90
52943;DHT22;38809;53.300;6.614;2022-12-29T12:55:14;9.30;99.90
52943;DHT22;38809;53.300;6.614;2022-12-29T13:00:17;9.30;99.90
52943;DHT22;38809;53.300;6.614;2022-12-29T13:19:30;9.30;99.90
52943;DHT22;38809;53.300;6.614;2022-12-29T13:22:17;9.30;99.90
52943;DHT22;38809;53.300;6.614;2022-12-29T13:25:00;9.40;99.90
52943;DHT22;38809;53.300;6.614;2022-12-29T13:30:34;9.40;99.90
52943;DHT22;38809;53.300;6.614;2022-12-29T13:40:52;9.30;99.90
52943;DHT22;38809;53.300;6.614;2022-12-29T13:43:20;9.20;99.90
52943;DHT22;38809;53.300;6.614;2022-12-29T13:45:55;9.20;99.90
52943;DHT22;38809;53.300;6.614;2022-12-29T13:48:25;9.20;99.90
52943;DHT22;38809;53.300;6.614;2022-12-29T13:50:58;9.10;99.90
52943;DHT22;38809;53.300;6.614;2022-12-29T13:53:36;9.10;99.90
52943;DHT22;38809;53.300;6.614;2022-12-29T13:56:17;9.00;99.90
52943;DHT22;38809;53.300;6.614;2022-12-29T13:59:04;9.00;99.90
52943;DHT22;38809;53.300;6.614;2022-12-29T14:01:58;8.90;99.90
52943;DHT22;38809;53.300;6.614;2022-12-29T14:04:29;8.90;99.90
52943;DHT22;38809;53.300;6.614;2022-12-29T14:07:06;9.00;99.90
52943;DHT22;38809;53.300;6.614;2022-12-29T14:09:40;9.00;99.90
52943;DHT22;38809;53.300;6.614;2022-12-29T14:12:39;9.00;99.90
52943;DHT22;38809;53.300;6.614;2022-12-29T14:17:35;8.90;99.90
52943;DHT22;38809;53.300;6.614;2022-12-29T14:20:03;9.00;99.90
52943;DHT22;38809;53.300;6.614;2022-12-29T14:22:30;9.00;99.90
52943;DHT22;38809;53.300;6.614;2022-12-29T14:24:56;9.00;99.90
52943;DHT22;38809;53.300;6.614;2022-12-29T14:29:49;8.90;99.90
52943;DHT22;38809;53.300;6.614;2022-12-29T14:34:48;8.90;99.90
52943;DHT22;38809;53.300;6.614;2022-12-29T14:37:31;8.90;99.90
52943;DHT22;38809;53.300;6.614;2022-12-29T14:40:08;8.90;99.90
52943;DHT22;38809;53.300;6.614;2022-12-29T14:42:40;8.90;99.90
52943;DHT22;38809;53.300;6.614;2022-12-29T14:45:27;8.80;99.90
52943;DHT22;38809;53.300;6.614;2022-12-29T14:47:54;8.80;99.90
52943;DHT22;38809;53.300;6.614;2022-12-29T14:58:05;8.60;99.90
52943;DHT22;38809;53.300;6.614;2022-12-29T15:00:33;8.60;99.90
52943;DHT22;38809;53.300;6.614;2022-12-29T15:03:30;8.50;99.90
52943;DHT22;38809;53.300;6.614;2022-12-29T15:06:09;8.50;99.90
52943;DHT22;38809;53.300;6.614;2022-12-29T15:11:14;8.40;99.90
52943;DHT22;38809;53.300;6.614;2022-12-29T15:13:42;8.40;99.90
52943;DHT22;38809;53.300;6.614;2022-12-29T15:16:26;8.40;99.90
52943;DHT22;38809;53.300;6.614;2022-12-29T15:18:54;8.30;99.90
52943;DHT22;38809;53.300;6.614;2022-12-29T15:21:26;8.30;99.90
52943;DHT22;38809;53.300;6.614;2022-12-29T15:23:52;8.30;99.90
52943;DHT22;38809;53.300;6.614;2022-12-29T15:26:18;8.30;99.90
52943;DHT22;38809;53.300;6.614;2022-12-29T15:28:49;8.30;99.90
52943;DHT22;38809;53.300;6.614;2022-12-29T15:31:21;8.20;99.90
52943;DHT22;38809;53.300;6.614;2022-12-29T15:33:50;8.20;99.90
52943;DHT22;38809;53.300;6.614;2022-12-29T15:36:24;8.20;99.90
52943;DHT22;38809;53.300;6.614;2022-12-29T15:38:51;8.20;99.90
52943;DHT22;38809;53.300;6.614;2022-12-29T15:44:08;8.20;99.90
52943;DHT22;38809;53.300;6.614;2022-12-29T15:46:39;8.10;99.90
52943;DHT22;38809;53.300;6.614;2022-12-29T15:49:09;8.10;99.90
52943;DHT22;38809;53.300;6.614;2022-12-29T15:51:39;8.10;99.90
52943;DHT22;38809;53.300;6.614;2022-12-29T15:54:06;8.10;99.90
52943;DHT22;38809;53.300;6.614;2022-12-29T15:56:37;8.10;99.90
52943;DHT22;38809;53.300;6.614;2022-12-29T15:59:03;8.10;99.90
52943;DHT22;38809;53.300;6.614;2022-12-29T16:01:36;8.10;99.90
52943;DHT22;38809;53.300;6.614;2022-12-29T16:04:07;8.10;99.90
52943;DHT22;38809;53.300;6.614;2022-12-29T16:06:39;8.10;99.90
52943;DHT22;38809;53.300;6.614;2022-12-29T16:09:28;8.10;99.90
52943;DHT22;38809;53.300;6.614;2022-12-29T16:11:59;8.10;99.90
52943;DHT22;38809;53.300;6.614;2022-12-29T16:14:41;8.10;99.90
52943;DHT22;38809;53.300;6.614;2022-12-29T16:17:13;8.10;99.90
52943;DHT22;38809;53.300;6.614;2022-12-29T16:19:54;8.20;99.90
52943;DHT22;38809;53.300;6.614;2022-12-29T16:25:06;8.20;99.90
52943;DHT22;38809;53.300;6.614;2022-12-29T16:27:44;8.20;99.90
52943;DHT22;38809;53.300;6.614;2022-12-29T16:32:49;8.10;99.90
52943;DHT22;38809;53.300;6.614;2022-12-29T16:37:42;8.10;99.90
52943;DHT22;38809;53.300;6.614;2022-12-29T16:40:25;8.00;99.90
52943;DHT22;38809;53.300;6.614;2022-12-29T16:43:02;7.90;99.90
52943;DHT22;38809;53.300;6.614;2022-12-29T16:50:40;7.70;99.90
52943;DHT22;38809;53.300;6.614;2022-12-29T16:55:47;7.70;99.90
52943;DHT22;38809;53.300;6.614;2022-12-29T16:58:21;7.60;99.90
52943;DHT22;38809;53.300;6.614;2022-12-29T17:00:47;7.50;99.90
52943;DHT22;38809;53.300;6.614;2022-12-29T17:03:14;7.50;99.90
52943;DHT22;38809;53.300;6.614;2022-12-29T17:05:40;7.50;99.90
52943;DHT22;38809;53.300;6.614;2022-12-29T17:08:18;7.60;99.90
52943;DHT22;38809;53.300;6.614;2022-12-29T17:10:54;7.50;99.90
52943;DHT22;38809;53.300;6.614;2022-12-29T17:13:39;7.40;99.90
52943;DHT22;38809;53.300;6.614;2022-12-29T17:16:06;7.40;99.90
52943;DHT22;38809;53.300;6.614;2022-12-29T17:18:33;7.40;99.90
52943;DHT22;38809;53.300;6.614;2022-12-29T17:21:11;7.30;99.90
52943;DHT22;38809;53.300;6.614;2022-12-29T17:23:38;7.30;99.90
52943;DHT22;38809;53.300;6.614;2022-12-29T17:26:12;7.40;99.90
52943;DHT22;38809;53.300;6.614;2022-12-29T17:28:38;7.30;99.90
52943;DHT22;38809;53.300;6.614;2022-12-29T17:31:05;7.30;99.90
52943;DHT22;38809;53.300;6.614;2022-12-29T17:33:40;7.30;99.90
52943;DHT22;38809;53.300;6.614;2022-12-29T17:36:08;7.40;99.90
52943;DHT22;38809;53.300;6.614;2022-12-29T17:38:36;7.30;99.90
52943;DHT22;38809;53.300;6.614;2022-12-29T17:41:02;7.40;99.90
52943;DHT22;38809;53.300;6.614;2022-12-29T17:43:28;7.40;99.90
52943;DHT22;38809;53.300;6.614;2022-12-29T17:45:56;7.40;99.90
52943;DHT22;38809;53.300;6.614;2022-12-29T17:48:24;7.40;99.90
52943;DHT22;38809;53.300;6.614;2022-12-29T17:50:52;7.50;99.90
52943;DHT22;38809;53.300;6.614;2022-12-29T17:53:23;7.60;99.90
52943;DHT22;38809;53.300;6.614;2022-12-29T17:55:50;7.50;99.90
52943;DHT22;38809;53.300;6.614;2022-12-29T18:00:48;7.60;99.90
52943;DHT22;38809;53.300;6.614;2022-12-29T18:03:16;7.60;99.90
52943;DHT22;38809;53.300;6.614;2022-12-29T18:05:43;7.70;99.90
52943;DHT22;38809;53.300;6.614;2022-12-29T18:08:09;7.70;99.90
52943;DHT22;38809;53.300;6.614;2022-12-29T18:10:37;7.70;99.90
52943;DHT22;38809;53.300;6.614;2022-12-29T18:13:03;7.70;99.90
52943;DHT22;38809;53.300;6.614;2022-12-29T18:15:31;7.70;99.90
52943;DHT22;38809;53.300;6.614;2022-12-29T18:18:16;7.70;99.90
52943;DHT22;38809;53.300;6.614;2022-12-29T18:20:44;7.70;99.90
52943;DHT22;38809;53.300;6.614;2022-12-29T18:23:20;7.70;99.90
52943;DHT22;38809;53.300;6.614;2022-12-29T18:25:52;7.70;99.90
52943;DHT22;38809;53.300;6.614;2022-12-29T18:28:19;7.70;99.90
52943;DHT22;38809;53.300;6.614;2022-12-29T18:30:45;7.60;99.90
52943;DHT22;38809;53.300;6.614;2022-12-29T18:33:16;7.60;99.90
52943;DHT22;38809;53.300;6.614;2022-12-29T18:35:58;7.60;99.90
52943;DHT22;38809;53.300;6.614;2022-12-29T18:38:25;7.60;99.90
52943;DHT22;38809;53.300;6.614;2022-12-29T18:40:52;7.60;99.90
52943;DHT22;38809;53.300;6.614;2022-12-29T18:43:18;7.80;99.90
52943;DHT22;38809;53.300;6.614;2022-12-29T18:45:45;7.60;99.90
52943;DHT22;38809;53.300;6.614;2022-12-29T18:48:16;7.50;99.90